메인 페이지
METAR-TAF:

METAR-TAF

공항 :

인헤니에로 아에로나르띠꼬 엠브로시오 L.V. 타라벨라 국제공항

코르도바, 아르헨티나

위도: 31-19S, 경도: 064-13W, 고도: 484m

현재 날씨관측

예보는 15분 전, 20:00시(UTC)에 발표되었습니다.
서북서8kt
온도 31°C
습도 19%
기압 999 hPa
시정 10km 이상
고도 2500ft 상공 구름 조금, 타워링 적운.

METAR: SACO 182000Z 30008KT 9999 FEW025TCU 31/05 Q0999 NOSIG

시각: 17:15 (20:15 UTC)

예보

예보는 3 시간 15분 전, 17:00시(UTC)에 발표되었습니다.
예보 대상 시간: 18일 18시부터 19일 18시까지 (UTC)
15kt
시정 10km 이상
전환 중
18일 00시부터 18일 03시까지 (UTC)
25kt
시정: 8000m
고도 2500ft 상공 구름 보통
고도 3000ft 상공 구름 많음
전환 중
18일 06시부터 18일 09시까지 (UTC)
5kt
시정 10km 이상
고도 3000ft 상공 구름 많음

TAF: SACO 181700Z 1818/1918 36015KT 9999 3CU2000FT TX22/1918Z TN11/1910Z BECMG 1800/1803 18025KT 8000 SCT025 BKN030 BECMG 1806/1809 18005KT 9999 BKN030

4,000개 이상의 공항 관측 자료 및 예보 (METAR 및 TAF 보고).

지도상에서 검색 가능한 기상관측소가 노란 점과 빨간 점으로 표시되어 있습니다.

기상관측소 명을 보려면 표시 위로 마우스를 이동하세요.

날씨 관측과 예보를 보려면 클릭하세요.

지도 변경 : 확대하려면 엑스 표시가 있는 녹색 버튼, 축소하려면 빼기 표시가 있는 녹색 버튼, 다음 페이지의 지도를 보려면 녹색 화살표를 클릭하세요.


METAR-TAF: